Nashua, MT

10:14 PM MDT on July 25, 2014 (GMT -0600)
nashua (KMTNASHU2) Elev 2156 ft | 48.11 °N, 106.45 °W | Change Station
Active Advisory: Fire Weather Watch

Current weather conditions updated 14 minutes ago

Clear
Clear
57.5 °F
Feels Like 57.5 °F
N
3.9
Wind Variable Wind from WNW
Gusts 6.2 mph

Tomorrow is forecast to be Cooler than today.

Today
High -- | Low -- °F
--% Chance of Precip.
Yesterday
High -- | Low -- °F
Precip. -- in
5:32 AM 8:50 PM
Waning Crescent, 1% visible
Pressure 29.85 in
Visibility 10.0 miles
Clouds Clear
Dew Point 39 °F
Humidity 50%
Rainfall 0.00 in
Snow Depth Not available.
UV 0 out of 12
Pollen 6.80 out of 12
Air Quality Not available.
Flu Activity Not available.
METAR KGGW 260353Z AUTO 31006KT 10SM CLR 16/09 A2986 RMK AO2 SLP106 T01610089

More Conditions Fewer Conditions

Pressure 29.85 in
Visibility 10.0 miles
Clouds Clear
Dew Point 39 °F
Humidity 50%
Rainfall 0.00 in
Snow Depth Not available.
UV 0 out of 12
Pollen 6.80 out of 12
Air Quality Not available.
Flu Activity Not available.
METAR KGGW 260353Z AUTO 31006KT 10SM CLR 16/09 A2986 RMK AO2 SLP106 T01610089

More Conditions Fewer Conditions

10-Day Weather Forecast

Almanac

Astronomy

Jul. 25, 2014 Rise Set
Actual Time 5:32 AM MDT 8:50 PM MDT
Civil Twilight 4:54 AM MDT 9:28 PM MDT
Nautical Twilight 4:04 AM MDT 10:17 PM MDT
Astronomical Twilight 3:00 AM MDT 11:21 PM MDT
Moon 4:37 AM MDT (7/25) 7:44 PM MDT (7/25)
Length of Visible Light 16h 33m
Length of Day
15h 18m
Tomorrow will be 2m 28s shorter.
Waning Crescent, 1% of the Moon is Illuminated
Jul 26
Waning Crescent
Jul 26
New
Aug 3
First Quarter
Aug 10
Full
Aug 17
Last Quarter

Today's Extremes

State Highs State Lows

Community

WunderPhotos

Upload Photos

1,737,504 photos uploaded!

Nearby

Snow Depth

Station Depth Elevation
Crystal Lake 0 in 6050 ft
Daisy Peak 0 in 7600 ft
Spur Park 0 in 8100 ft
Onion Park 0 in 7410 ft
Stringer Creek 0 in 6550 ft

Earthquake Activity

City Distance Mag. Time & Date
No recent earthquake activity has been reported nearby.
Minimum magnitude displayed is 2.5.

Coastal Water Temperatures

Place Temperature
No Stations Reporting

Nearby Weather Stations

Station Location Temp. Dew Point Humidity Wind Precip. Elev Updated Type
nashua, Nashua, MT 57.5 °F 39 °F 50% WNW  at  3.9 mph 0.00 in / hr 2156 ft 10:00 PM MDT Normal
Sturgeon Bay, Fort Peck, MT 63.7 °F 47 °F 54% SSW  at  2.2 mph 0.00 in / hr 2287 ft 10:10 PM MDT Normal
City Center - AA7AS, Glasgow, MT 65.3 °F 49 °F 56% West  at  6.7 mph - / hr 2090 ft 10:01 PM MDT Normal

Show More Stations Show Fewer Stations